• Join FlightAware (Why Join?)
  • Login
  • US Flag 
07:55PM EDT


 

Airport Tracker/Info


-or-


 

Live Flight TrackerFlight Track Log ✈ N899PW ✈ 07-Jul-2013 ✈ KDTS - KUOX

Flight Track Log - Related Links

Times and Time Zones

All times are in EDT time to prevent confusion due to time zone crossing. See the N899PW flight status page for this flight to view local times or setup timezone preferences in your user account.

Time Position Orientation Groundspeed Altitude Reporting Facility
EDT Latitude Longitude Course Direction KTS MPH feet Rate Location/Type
07:11PM 30.3475 -86.6233 328° Northwest 142 163 3,500  Level Jacksonville Center
07:12PM 30.6215 -86.6336 328° Northwest  Level Estimated
07:12PM 30.3658 -86.6408 321° Northwest 143 165 3,700  Level Jacksonville Center
07:13PM 30.6584 -86.6607 328° Northwest  Level Estimated
07:13PM 30.3942 -86.6733 315° West 146 168 4,300  Level Jacksonville Center
07:14PM 30.6953 -86.6878 328° Northwest  Level Estimated
07:14PM 30.4267 -86.7033 321° Northwest 144 166 4,800  Level Jacksonville Center
07:15PM 30.7322 -86.7149 328° Northwest  Level Estimated
07:15PM 30.4569 -86.7336 319° Northwest 142 163 5,400  Level Jacksonville Center
07:16PM 30.7690 -86.7421 328° Northwest  Level Estimated
07:16PM 30.4897 -86.7592 326° Northwest 144 166 5,900  Level Jacksonville Center
07:17PM 30.8059 -86.7693 328° Northwest  Level Estimated
07:17PM 30.5203 -86.7867 322° Northwest 135 155 6,600  Level Jacksonville Center
07:18PM 30.5508 -86.8122 324° Northwest 132 152 7,100 420 Climbing Jacksonville Center
07:19PM 30.5811 -86.8400 322° Northwest 140 161 7,500 300 Climbing Jacksonville Center
07:20PM 30.6136 -86.8678 324° Northwest 149 171 7,800 240 Climbing Jacksonville Center
07:21PM 30.6461 -86.8981 321° Northwest 153 176 8,000 60 Climbing Jacksonville Center
07:22PM 30.6825 -86.9336 320° Northwest 160 184 8,000  Level Jacksonville Center
07:23PM 30.7172 -86.9617 325° Northwest 167 192 8,000  Level Jacksonville Center
07:24PM 30.7536 -86.9969 320° Northwest 161 185 8,000  Level Jacksonville Center
07:25PM 30.7900 -87.0300 322° Northwest 161 185 8,000  Level Jacksonville Center
07:26PM 30.8289 -87.0583 328° Northwest 163 188 8,000  Level Jacksonville Center
07:27PM 30.8697 -87.0842 331° Northwest 164 189 8,000  Level Jacksonville Center
07:28PM 30.9106 -87.1103 331° Northwest 165 190 8,000  Level Jacksonville Center
07:29PM 30.9478 -87.1264 340° North 184 212 8,000  Level Jacksonville Center
07:30PM 30.9886 -87.1525 331° Northwest 178 205 8,000  Level Jacksonville Center
07:31PM 31.0294 -87.1786 331° Northwest 165 190 8,000  Level Jacksonville Center
07:32PM 31.0683 -87.2022 333° Northwest 160 184 8,000  Level Jacksonville Center
07:33PM 31.1111 -87.2283 332° Northwest 160 184 8,000  Level Jacksonville Center
07:35PM 31.1989 -87.2917 328° Northwest 162 186 8,000  Level Atlanta Center
07:36PM 31.2378 -87.3197 328° Northwest 162 186 8,000  Level Atlanta Center
07:37PM 31.2808 -87.3481 331° Northwest 167 192 8,000  Level Atlanta Center
07:38PM 31.3239 -87.3764 331° Northwest 167 192 8,000  Level Atlanta Center
07:39PM 31.3650 -87.4019 332° Northwest 167 192 8,000  Level Atlanta Center
07:40PM 31.4039 -87.4303 328° Northwest 167 192 8,000  Level Atlanta Center
07:41PM 31.4425 -87.4586 328° Northwest 167 192 8,100  Climbing Atlanta Center
07:42PM 31.4836 -87.4867 330° Northwest 167 192 8,100  Level Atlanta Center
07:43PM 31.5244 -87.5153 329° Northwest 167 192 8,100  Level Atlanta Center
07:44PM 31.5656 -87.5436 330° Northwest 167 192 8,100  Level Atlanta Center
07:45PM 31.6064 -87.5719 329° Northwest 167 192 8,100  Level Atlanta Center
07:46PM 31.6472 -87.6003 329° Northwest 167 192 8,100  Level Atlanta Center
07:47PM 31.6883 -87.6264 332° Northwest 167 192 8,100  Level Atlanta Center
07:48PM 31.7292 -87.6572 327° Northwest 167 192 8,100  Level Atlanta Center
07:49PM 31.7722 -87.6858 331° Northwest 167 192 8,100  Level Atlanta Center
07:50PM 31.8108 -87.7144 328° Northwest 167 192 8,100  Level Atlanta Center
07:51PM 31.8539 -87.7431 331° Northwest 162 186 8,100  Level Atlanta Center
07:52PM 31.8947 -87.7692 332° Northwest 167 192 8,100  Level Atlanta Center
07:53PM 31.9358 -87.7978 329° Northwest 167 192 8,100  Level Atlanta Center
07:54PM 31.9767 -87.8239 332° Northwest 167 192 8,100  Level Atlanta Center
07:55PM 32.0156 -87.8500 330° Northwest 162 186 8,100  Level Atlanta Center
07:56PM 32.0564 -87.8789 329° Northwest 162 186 8,100 -120 Level Atlanta Center
07:58PM 32.1099 -87.9169 329° Northwest  Level FlightAware Approximate
08:05PM 32.3686 -88.1004 329° Northwest  Level FlightAware Approximate
08:06PM 32.4056 -88.1266 329° Northwest  Level FlightAware Approximate
08:07PM 32.4426 -88.1528 329° Northwest  Level FlightAware Approximate
08:08PM 32.4796 -88.1790 329° Northwest  Level FlightAware Approximate
08:09PM 32.5184 -88.2059 330° Northwest  Level FlightAware Approximate
08:10PM 32.5571 -88.2328 330° Northwest  Level FlightAware Approximate
08:11PM 32.5959 -88.2598 330° Northwest  Level FlightAware Approximate
08:12PM 32.6347 -88.2868 330° Northwest  Level FlightAware Approximate
08:13PM 32.6734 -88.3138 330° Northwest  Level FlightAware Approximate
08:14PM 32.7122 -88.3408 330° Northwest  Level FlightAware Approximate
08:15PM 32.7509 -88.3678 330° Northwest  Level FlightAware Approximate
08:16PM 32.7897 -88.3949 330° Northwest  Level FlightAware Approximate
08:17PM 32.8284 -88.4220 330° Northwest  Level FlightAware Approximate
08:18PM 32.8672 -88.4491 330° Northwest  Level FlightAware Approximate
08:19PM 32.9059 -88.4763 330° Northwest  Level FlightAware Approximate
08:19PM 32.9694 -88.5200 329° Northwest 158 182 6,200  Level Memphis Center
08:20PM 32.9446 -88.5034 330° Northwest  Level FlightAware Approximate
08:20PM 33.0031 -88.5464 327° Northwest 164 189 6,100  Level Memphis Center
08:21PM 32.9833 -88.5306 329° Northwest  Level FlightAware Approximate
08:22PM 33.0220 -88.5579 329° Northwest  Level FlightAware Approximate
08:22PM 33.0836 -88.6192 323° Northwest 154 177 6,100  Level Memphis Center
08:23PM 33.0608 -88.5851 329° Northwest  Level FlightAware Approximate
08:23PM 33.1131 -88.6533 316° Northwest 149 171 6,000  Level Memphis Center
08:24PM 33.0995 -88.6124 329° Northwest  Level FlightAware Approximate
08:24PM 33.1511 -88.6800 330° Northwest 144 166 6,000  Level Memphis Center
08:25PM 33.1850 -88.7139 320° Northwest 155 178 6,000  Level Memphis Center
08:26PM 33.2167 -88.7433 322° Northwest 161 185 6,000  Level Memphis Center
08:27PM 33.2547 -88.7722 328° Northwest 161 185 6,100  Climbing Memphis Center
08:28PM 33.2883 -88.7967 329° Northwest 161 185 6,100 -60 Level Memphis Center
08:29PM 33.3261 -88.8208 332° Northwest 155 178 6,000  Descending Memphis Center
08:30PM 33.3642 -88.8450 332° Northwest 149 171 6,100  Climbing Memphis Center
08:31PM 33.4061 -88.8667 337° Northwest 155 178 6,100  Level Memphis Center
08:32PM 33.4439 -88.8908 332° Northwest 155 178 6,100 -60 Level Memphis Center
08:33PM 33.4797 -88.9153 330° Northwest 155 178 6,000 -60 Descending Memphis Center
08:34PM 33.5197 -88.9394 333° Northwest 160 184 6,000  Level Memphis Center
08:35PM 33.5556 -88.9664 328° Northwest 160 184 6,100  Climbing Memphis Center
08:36PM 33.5953 -88.9931 331° Northwest 160 184 6,100 -60 Level Memphis Center
08:37PM 33.6333 -89.0200 329° Northwest 160 184 6,000  Descending Memphis Center
08:38PM 33.6711 -89.0492 327° Northwest 160 184 6,100  Climbing Memphis Center
08:39PM 33.7089 -89.0736 332° Northwest 160 184 6,100 -60 Level Memphis Center
08:40PM 33.7511 -89.1031 330° Northwest 160 184 6,000  Descending Memphis Center
08:41PM 33.7867 -89.1200 338° Northwest 160 184 6,100 -60 Climbing Memphis Center
08:42PM 33.8244 -89.1469 329° Northwest 155 178 5,900 -300 Descending Memphis Center
08:43PM 33.8622 -89.1739 329° Northwest 161 185 5,500 -360 Descending Memphis Center
08:44PM 33.9044 -89.2033 330° Northwest 167 192 5,200 -420 Descending Memphis Center
08:45PM 33.9442 -89.2331 328° Northwest 167 192 4,700 -480 Descending Memphis Center
08:46PM 33.9819 -89.2600 329° Northwest 167 192 4,300 -420 Descending Memphis Center
08:47PM 34.0283 -89.2869 334° Northwest 172 198 3,900 -480 Descending Memphis Center
08:48PM 34.0703 -89.3167 330° Northwest 172 198 3,400 -480 Descending Memphis Center
08:49PM 34.1142 -89.3461 331° Northwest 172 198 3,000 -300 Descending Memphis Center
08:50PM 34.1564 -89.3758 330° Northwest 172 198 2,800 -120 Descending Memphis Center
08:51PM 34.1961 -89.4053 328° Northwest 177 204 2,800  Level Memphis Center